createdAt,value
2023-03-04T00:02:26.390Z,68.30
2023-03-04T00:04:53.304Z,68.50
2023-03-04T00:07:20.537Z,68.90
2023-03-04T00:09:47.528Z,68.90
2023-03-04T00:12:14.509Z,69.00
2023-03-04T00:14:41.658Z,69.20
2023-03-04T00:17:09.414Z,69.30
2023-03-04T00:19:36.636Z,69.40
2023-03-04T00:22:04.584Z,69.40
2023-03-04T00:24:32.151Z,69.30
2023-03-04T00:26:59.342Z,69.30
2023-03-04T00:29:26.597Z,69.30
2023-03-04T00:31:53.786Z,69.20
2023-03-04T00:34:21.107Z,69.40
2023-03-04T00:36:48.594Z,69.50
2023-03-04T00:39:15.765Z,69.80
2023-03-04T00:41:42.714Z,69.80
2023-03-04T00:44:09.853Z,69.50
2023-03-04T00:46:36.794Z,69.30
2023-03-04T00:49:03.966Z,70.00
2023-03-04T00:51:30.919Z,69.10
2023-03-04T00:54:00.370Z,69.40
2023-03-04T00:56:27.787Z,69.40
2023-03-04T00:58:54.999Z,69.80
2023-03-04T01:01:22.102Z,70.00
2023-03-04T01:03:49.054Z,70.00
2023-03-04T01:06:16.084Z,69.90
2023-03-04T01:08:43.180Z,69.90
2023-03-04T01:11:10.317Z,70.00
2023-03-04T01:13:37.462Z,70.10
2023-03-04T01:16:05.232Z,70.00
2023-03-04T01:18:32.350Z,70.00
2023-03-04T01:20:59.328Z,70.00
2023-03-04T01:23:26.331Z,70.20
2023-03-04T01:25:53.405Z,70.40
2023-03-04T01:28:20.285Z,70.70
2023-03-04T01:30:48.205Z,70.90
2023-03-04T01:33:15.107Z,70.80
2023-03-04T01:35:42.574Z,71.20
2023-03-04T01:38:09.529Z,71.40
2023-03-04T01:40:37.993Z,71.20
2023-03-04T01:43:05.561Z,71.50
2023-03-04T01:45:35.809Z,71.60
2023-03-04T01:48:02.810Z,71.40
2023-03-04T01:50:35.105Z,71.40
2023-03-04T01:53:02.998Z,71.20
2023-03-04T01:55:30.691Z,70.80
2023-03-04T01:57:57.627Z,70.50
2023-03-04T02:00:30.553Z,70.50
2023-03-04T02:02:59.516Z,70.50
2023-03-04T02:05:27.237Z,70.50
2023-03-04T02:07:57.122Z,70.50
2023-03-04T02:10:24.668Z,70.80
2023-03-04T02:12:52.463Z,70.90
2023-03-04T02:15:20.206Z,70.80
2023-03-04T02:17:47.395Z,70.60
2023-03-04T02:20:38.454Z,70.60
2023-03-04T02:23:25.391Z,70.70
2023-03-04T02:26:30.524Z,70.80
2023-03-04T02:28:59.799Z,70.90
2023-03-04T02:31:44.640Z,70.70
2023-03-04T02:34:15.391Z,70.40
2023-03-04T02:36:43.936Z,70.40
2023-03-04T02:39:26.044Z,70.50
2023-03-04T02:41:55.095Z,70.60
2023-03-04T02:44:29.023Z,70.70
2023-03-04T02:46:57.923Z,70.80
2023-03-04T02:49:27.846Z,70.90
2023-03-04T02:52:01.039Z,70.90
2023-03-04T02:54:28.750Z,70.90
2023-03-04T02:56:58.900Z,71.00
2023-03-04T02:59:26.233Z,70.80
2023-03-04T03:01:53.741Z,71.00
2023-03-04T03:04:22.702Z,70.90
2023-03-04T03:06:52.613Z,70.90
2023-03-04T03:09:20.231Z,70.90
2023-03-04T03:11:47.520Z,70.80
2023-03-04T03:14:15.125Z,70.70
2023-03-04T03:16:42.103Z,70.70
2023-03-04T03:19:09.035Z,70.70
2023-03-04T03:21:36.896Z,70.70
2023-03-04T03:24:04.460Z,70.70
2023-03-04T03:26:31.368Z,70.70
2023-03-04T03:28:58.252Z,71.40
2023-03-04T03:31:25.243Z,70.80
2023-03-04T03:33:52.209Z,70.80
2023-03-04T03:36:19.139Z,70.80
2023-03-04T03:38:46.027Z,70.80
2023-03-04T03:41:12.957Z,70.70
2023-03-04T03:43:39.967Z,70.80
2023-03-04T03:46:06.911Z,70.80
2023-03-04T03:48:33.808Z,70.80
2023-03-04T03:51:01.931Z,70.70
2023-03-04T03:53:28.784Z,70.70
2023-03-04T03:55:56.119Z,70.60
2023-03-04T03:58:23.354Z,70.60
2023-03-04T04:00:50.380Z,70.50
2023-03-04T04:03:17.719Z,70.50
2023-03-04T04:05:44.678Z,70.50
2023-03-04T04:08:14.493Z,70.60
2023-03-04T04:10:42.118Z,70.60
2023-03-04T04:13:09.873Z,70.70
2023-03-04T04:15:38.737Z,70.70
2023-03-04T04:18:07.080Z,70.60
2023-03-04T04:20:34.437Z,70.60
2023-03-04T04:23:01.750Z,70.60
2023-03-04T04:25:28.937Z,70.60
2023-03-04T04:27:56.145Z,70.80
2023-03-04T04:30:23.157Z,70.70
2023-03-04T04:32:50.036Z,70.70
2023-03-04T04:35:17.236Z,70.80
2023-03-04T04:37:44.059Z,70.80
2023-03-04T04:40:11.740Z,70.90
2023-03-04T04:42:38.646Z,70.80
2023-03-04T04:45:06.206Z,70.60
2023-03-04T04:47:33.291Z,70.40
2023-03-04T04:50:00.190Z,70.40
2023-03-04T04:52:27.140Z,70.50
2023-03-04T04:54:54.069Z,70.60
2023-03-04T04:57:21.040Z,70.70
2023-03-04T04:59:48.595Z,70.90
2023-03-04T05:02:15.746Z,70.80
2023-03-04T05:04:42.661Z,70.80
2023-03-04T05:07:09.571Z,70.90
2023-03-04T05:09:36.440Z,70.70
2023-03-04T05:12:03.513Z,70.80
2023-03-04T05:14:30.431Z,70.80
2023-03-04T05:16:57.471Z,70.80
2023-03-04T05:19:24.578Z,70.60
2023-03-04T05:21:51.585Z,70.60
2023-03-04T05:24:18.678Z,70.70
2023-03-04T05:26:45.996Z,70.70
2023-03-04T05:29:12.976Z,70.80
2023-03-04T05:31:40.172Z,70.90
2023-03-04T05:34:07.747Z,70.90
2023-03-04T05:36:35.056Z,70.80
2023-03-04T05:39:01.975Z,71.00
2023-03-04T05:41:28.978Z,71.00
2023-03-04T05:43:56.518Z,71.00
2023-03-04T05:46:25.697Z,71.00
2023-03-04T05:48:54.266Z,71.00
2023-03-04T05:51:22.243Z,71.00
2023-03-04T05:53:52.262Z,70.90
2023-03-04T05:56:20.540Z,71.00
2023-03-04T05:58:47.872Z,71.20
2023-03-04T06:01:14.964Z,71.20
2023-03-04T06:03:43.446Z,71.20
2023-03-04T06:06:10.496Z,71.10
2023-03-04T06:08:37.553Z,71.00
2023-03-04T06:11:05.667Z,70.90
2023-03-04T06:13:34.824Z,70.80
2023-03-04T06:16:01.867Z,70.70
2023-03-04T06:18:29.589Z,70.70
2023-03-04T06:21:01.789Z,70.70
2023-03-04T06:23:29.448Z,70.60
2023-03-04T06:25:58.401Z,70.70
2023-03-04T06:28:25.803Z,70.70
2023-03-04T06:30:54.023Z,70.80
2023-03-04T06:33:20.965Z,70.80
2023-03-04T06:35:48.496Z,70.80
2023-03-04T06:38:15.702Z,70.90
2023-03-04T06:40:42.732Z,71.00
2023-03-04T06:43:09.741Z,71.00
2023-03-04T06:45:39.467Z,70.90
2023-03-04T06:48:06.554Z,70.60
2023-03-04T06:50:33.489Z,70.30
2023-03-04T06:53:00.412Z,70.20
2023-03-04T06:55:27.471Z,70.10
2023-03-04T06:57:54.434Z,69.80
2023-03-04T07:00:24.047Z,69.70
2023-03-04T07:02:52.885Z,70.10
2023-03-04T07:05:20.887Z,69.40
2023-03-04T07:07:48.458Z,69.60
2023-03-04T07:10:15.409Z,69.60
2023-03-04T07:12:42.400Z,69.50
2023-03-04T07:15:09.918Z,70.10
2023-03-04T07:17:36.959Z,69.90
2023-03-04T07:20:04.186Z,69.00
2023-03-04T07:22:31.412Z,68.50
2023-03-04T07:24:58.294Z,68.40
2023-03-04T07:27:25.670Z,68.20
2023-03-04T07:29:52.598Z,68.10
2023-03-04T07:32:19.777Z,67.70
2023-03-04T07:34:46.710Z,67.20
2023-03-04T07:37:13.634Z,67.00
2023-03-04T07:39:40.563Z,67.10
2023-03-04T07:42:07.545Z,67.40
2023-03-04T07:44:39.625Z,67.20
2023-03-04T07:47:06.536Z,67.20
2023-03-04T07:49:33.401Z,67.30
2023-03-04T07:52:04.251Z,67.20
2023-03-04T07:54:31.140Z,67.50
2023-03-04T07:56:58.089Z,67.80
2023-03-04T07:59:25.094Z,67.90
2023-03-04T08:01:52.046Z,67.90
2023-03-04T08:04:19.006Z,68.10
2023-03-04T08:06:45.924Z,68.00
2023-03-04T08:09:14.022Z,68.10
2023-03-04T08:11:41.145Z,68.20
2023-03-04T08:14:09.245Z,67.80
2023-03-04T08:16:36.227Z,67.70
2023-03-04T08:19:03.919Z,67.70
2023-03-04T08:21:31.147Z,67.70
2023-03-04T08:24:01.821Z,67.50
2023-03-04T08:26:40.751Z,67.40
2023-03-04T08:29:10.653Z,67.30
2023-03-04T08:31:39.410Z,67.30
2023-03-04T08:34:10.558Z,67.30
2023-03-04T08:36:37.625Z,67.20
2023-03-04T08:39:05.792Z,67.20
2023-03-04T08:41:33.026Z,67.30
2023-03-04T08:44:00.780Z,67.30
2023-03-04T08:46:28.321Z,67.00
2023-03-04T08:48:55.277Z,66.90
2023-03-04T08:51:22.773Z,66.80
2023-03-04T08:53:49.887Z,66.90
2023-03-04T08:56:18.342Z,66.90
2023-03-04T08:58:45.382Z,67.40
2023-03-04T09:01:14.141Z,67.00
2023-03-04T09:03:41.985Z,67.00
2023-03-04T09:06:11.813Z,66.70
2023-03-04T09:08:38.700Z,66.50
2023-03-04T09:11:05.896Z,66.50
2023-03-04T09:13:33.255Z,66.30
2023-03-04T09:16:00.538Z,66.10
2023-03-04T09:18:28.243Z,65.70
2023-03-04T09:20:55.312Z,65.50
2023-03-04T09:23:22.862Z,65.40
2023-03-04T09:25:49.892Z,65.30
2023-03-04T09:28:17.958Z,65.10
2023-03-04T09:30:45.084Z,65.30
2023-03-04T09:33:12.221Z,65.30
2023-03-04T09:35:39.117Z,65.10
2023-03-04T09:38:06.243Z,65.00
2023-03-04T09:40:48.414Z,64.80
2023-03-04T09:43:29.464Z,64.40
2023-03-04T09:46:07.477Z,64.30
2023-03-04T09:48:47.940Z,64.20
2023-03-04T09:51:43.995Z,64.10
2023-03-04T09:54:52.938Z,64.10
2023-03-04T09:57:34.871Z,64.20
2023-03-04T10:00:19.999Z,64.20
2023-03-04T10:03:33.294Z,64.20
2023-03-04T10:06:05.425Z,64.20
2023-03-04T10:09:16.404Z,64.00
2023-03-04T10:11:47.975Z,63.90
2023-03-04T10:14:32.968Z,63.80
2023-03-04T10:17:03.584Z,63.90
2023-03-04T10:19:38.764Z,64.00
2023-03-04T10:22:28.248Z,64.00
2023-03-04T10:24:57.980Z,63.70
2023-03-04T10:27:25.694Z,63.10
2023-03-04T10:29:52.615Z,62.60
2023-03-04T10:32:20.938Z,62.30
2023-03-04T10:34:48.034Z,61.90
2023-03-04T10:37:15.158Z,61.70
2023-03-04T10:39:45.298Z,61.20
2023-03-04T10:42:15.480Z,60.70
2023-03-04T10:44:55.470Z,60.40
2023-03-04T10:47:31.365Z,60.40
2023-03-04T10:50:05.604Z,59.90
2023-03-04T10:52:40.312Z,59.40
2023-03-04T10:55:16.245Z,59.10
2023-03-04T10:57:47.743Z,58.90
2023-03-04T11:00:17.625Z,58.90
2023-03-04T11:02:46.328Z,58.60
2023-03-04T11:05:21.946Z,58.50
2023-03-04T11:07:56.728Z,58.40
2023-03-04T11:10:36.517Z,58.20
2023-03-04T11:13:25.824Z,58.10
2023-03-04T11:15:59.078Z,58.20
2023-03-04T11:18:43.847Z,58.40
2023-03-04T11:21:23.069Z,58.30
2023-03-04T11:24:26.062Z,58.40
2023-03-04T11:26:56.613Z,58.60
2023-03-04T11:29:32.540Z,58.70
2023-03-04T11:32:23.742Z,58.80
2023-03-04T11:35:21.797Z,58.90
2023-03-04T11:38:19.824Z,58.90
2023-03-04T11:40:54.249Z,58.90
2023-03-04T11:43:37.763Z,58.90
2023-03-04T11:46:23.321Z,58.80
2023-03-04T11:49:24.442Z,58.90
2023-03-04T11:52:10.504Z,58.90
2023-03-04T11:54:55.556Z,59.00
2023-03-04T11:57:31.600Z,59.00
2023-03-04T12:00:30.618Z,58.90
2023-03-04T12:03:22.200Z,59.10
2023-03-04T12:06:10.973Z,59.40
2023-03-04T12:08:40.826Z,59.40
2023-03-04T12:11:40.244Z,59.20
2023-03-04T12:14:36.468Z,59.20
2023-03-04T12:17:23.251Z,59.00
2023-03-04T12:20:18.162Z,58.80
2023-03-04T12:22:46.905Z,58.80
2023-03-04T12:25:38.254Z,58.80
2023-03-04T12:28:30.065Z,58.70
2023-03-04T12:31:37.299Z,58.80
2023-03-04T12:34:22.496Z,58.80
2023-03-04T12:37:11.287Z,58.90
2023-03-04T12:39:59.520Z,58.90
2023-03-04T12:42:58.407Z,59.00
2023-03-04T12:45:46.359Z,59.00
2023-03-04T12:48:19.432Z,59.00
2023-03-04T12:50:58.197Z,58.80
2023-03-04T12:53:54.440Z,58.70
2023-03-04T12:56:31.593Z,58.50
2023-03-04T12:58:59.983Z,58.60
2023-03-04T13:01:49.229Z,58.50
2023-03-04T13:04:40.902Z,58.50
2023-03-04T13:07:24.790Z,58.40
2023-03-04T13:09:58.757Z,58.20
2023-03-04T13:12:25.797Z,58.20
2023-03-04T13:15:08.026Z,58.10
2023-03-04T13:17:37.838Z,58.00
2023-03-04T13:20:31.142Z,57.80
2023-03-04T13:23:10.319Z,57.70
2023-03-04T13:25:55.356Z,57.70
2023-03-04T13:28:45.652Z,57.50
2023-03-04T13:31:16.861Z,57.30
2023-03-04T13:33:58.486Z,57.20
2023-03-04T13:36:35.132Z,56.90
2023-03-04T13:39:25.602Z,56.80
2023-03-04T13:41:55.454Z,56.70
2023-03-04T13:44:45.731Z,56.70
2023-03-04T13:47:22.452Z,56.70
2023-03-04T13:49:49.521Z,56.60
2023-03-04T13:52:41.600Z,56.50
2023-03-04T13:55:38.739Z,56.40
2023-03-04T13:58:23.858Z,56.50
2023-03-04T14:00:55.775Z,56.60
2023-03-04T14:03:29.205Z,56.60
2023-03-04T14:06:11.485Z,56.50
2023-03-04T14:08:38.323Z,56.50
2023-03-04T14:11:05.235Z,56.30
2023-03-04T14:13:32.250Z,56.10
2023-03-04T14:16:00.250Z,55.80
2023-03-04T14:18:28.209Z,55.80
2023-03-04T14:20:59.052Z,55.60
2023-03-04T14:23:36.377Z,55.50
2023-03-04T14:26:18.261Z,55.30
2023-03-04T14:28:49.459Z,55.30
2023-03-04T14:31:19.408Z,55.20
2023-03-04T14:33:59.821Z,54.70
2023-03-04T14:36:27.493Z,54.10
2023-03-04T14:38:58.002Z,54.10
2023-03-04T14:41:27.459Z,54.00
2023-03-04T14:44:19.974Z,53.90
2023-03-04T14:47:06.501Z,53.80
2023-03-04T14:49:36.808Z,53.70
2023-03-04T14:52:03.963Z,53.40
2023-03-04T14:54:30.996Z,53.30
2023-03-04T14:56:59.557Z,53.10
2023-03-04T14:59:36.407Z,52.50
2023-03-04T15:02:19.659Z,52.40
2023-03-04T15:04:48.187Z,52.60
2023-03-04T15:07:39.193Z,52.60
2023-03-04T15:10:12.555Z,52.00
2023-03-04T15:12:39.560Z,52.10
2023-03-04T15:15:41.707Z,52.20
2023-03-04T15:18:26.535Z,52.40
2023-03-04T15:21:05.463Z,52.60
2023-03-04T15:23:34.132Z,52.70
2023-03-04T15:26:09.166Z,52.90
2023-03-04T15:28:38.204Z,52.80
2023-03-04T15:31:17.264Z,52.80
2023-03-04T15:33:44.224Z,52.80
2023-03-04T15:36:15.580Z,52.70
2023-03-04T15:38:47.663Z,52.60
2023-03-04T15:41:25.015Z,52.50
2023-03-04T15:43:53.173Z,52.50
2023-03-04T15:46:20.897Z,52.50
2023-03-04T15:48:48.897Z,52.40
2023-03-04T15:51:22.315Z,52.20
2023-03-04T15:53:58.314Z,52.20
2023-03-04T15:56:31.500Z,52.30
2023-03-04T15:59:07.047Z,52.20
2023-03-04T16:01:33.980Z,52.00
2023-03-04T16:04:00.935Z,51.60
2023-03-04T16:06:32.515Z,51.20
2023-03-04T16:09:00.304Z,50.50
2023-03-04T16:11:30.088Z,49.80
2023-03-04T16:13:57.023Z,49.30
2023-03-04T16:16:24.035Z,48.90
2023-03-04T16:18:50.882Z,48.60
2023-03-04T16:21:20.370Z,48.20
2023-03-04T16:23:49.799Z,47.60
2023-03-04T16:26:23.158Z,47.40
2023-03-04T16:28:54.012Z,47.40
2023-03-04T16:31:22.076Z,47.30
2023-03-04T16:33:49.184Z,47.50
2023-03-04T16:36:28.962Z,47.60
2023-03-04T16:38:56.894Z,48.00
2023-03-04T16:41:28.332Z,48.30
2023-03-04T16:43:56.737Z,48.60
2023-03-04T16:46:24.074Z,49.00
2023-03-04T16:48:51.001Z,49.50
2023-03-04T16:51:21.026Z,50.10
2023-03-04T16:53:53.215Z,50.60
2023-03-04T16:56:20.700Z,51.10
2023-03-04T16:58:48.154Z,51.70
2023-03-04T17:01:20.761Z,52.00
2023-03-04T17:03:48.799Z,52.40
2023-03-04T17:06:16.643Z,52.80
2023-03-04T17:08:43.829Z,53.10
2023-03-04T17:11:18.804Z,53.50
2023-03-04T17:13:46.569Z,53.80
2023-03-04T17:16:15.282Z,54.00
2023-03-04T17:18:42.922Z,54.30
2023-03-04T17:21:12.912Z,54.60
2023-03-04T17:23:39.814Z,54.80
2023-03-04T17:26:06.904Z,55.10
2023-03-04T17:28:33.956Z,55.30
2023-03-04T17:31:01.651Z,55.50
2023-03-04T17:33:28.621Z,55.70
2023-03-04T17:35:57.861Z,55.80
2023-03-04T17:38:24.967Z,55.90
2023-03-04T17:40:51.772Z,56.10
2023-03-04T17:43:18.681Z,56.30
2023-03-04T17:45:45.551Z,56.50
2023-03-04T17:48:15.244Z,56.70
2023-03-04T17:50:50.079Z,56.80
2023-03-04T17:53:17.538Z,57.10
2023-03-04T17:56:03.024Z,57.20
2023-03-04T17:58:31.462Z,57.50
2023-03-04T18:01:21.736Z,57.60
2023-03-04T18:03:49.147Z,57.80
2023-03-04T18:06:17.230Z,58.40
2023-03-04T18:08:44.796Z,58.00
2023-03-04T18:11:12.358Z,58.20
2023-03-04T18:13:43.720Z,58.30
2023-03-04T18:16:14.090Z,58.30
2023-03-04T18:18:41.074Z,58.60
2023-03-04T18:21:08.660Z,58.70
2023-03-04T18:23:35.859Z,58.80
2023-03-04T18:26:04.385Z,58.80
2023-03-04T18:28:31.810Z,59.00
2023-03-04T18:30:58.708Z,59.00
2023-03-04T18:33:25.669Z,59.20
2023-03-04T18:35:59.045Z,59.20
2023-03-04T18:38:26.198Z,59.30
2023-03-04T18:40:57.191Z,59.30
2023-03-04T18:43:24.118Z,59.30
2023-03-04T18:46:19.908Z,59.30
2023-03-04T18:48:54.897Z,59.30
2023-03-04T18:51:22.156Z,59.20
2023-03-04T18:53:49.116Z,59.10
2023-03-04T18:56:22.271Z,59.10
2023-03-04T18:58:51.502Z,59.00
2023-03-04T19:01:22.401Z,58.90
2023-03-04T19:03:50.632Z,58.90
2023-03-04T19:06:18.124Z,58.90
2023-03-04T19:08:44.988Z,58.70
2023-03-04T19:11:11.883Z,58.70
2023-03-04T19:13:38.801Z,58.60
2023-03-04T19:16:06.039Z,58.50
2023-03-04T19:18:33.154Z,58.50
2023-03-04T19:21:00.945Z,58.40
2023-03-04T19:23:29.397Z,58.40
2023-03-04T19:25:56.328Z,58.30
2023-03-04T19:28:24.322Z,58.30
2023-03-04T19:30:53.108Z,58.20
2023-03-04T19:33:20.564Z,58.20
2023-03-04T19:35:47.963Z,58.10
2023-03-04T19:38:14.958Z,58.10
2023-03-04T19:40:43.426Z,58.20
2023-03-04T19:43:10.402Z,58.10
2023-03-04T19:45:37.297Z,58.00
2023-03-04T19:48:04.770Z,57.90
2023-03-04T19:50:32.721Z,57.90
2023-03-04T19:52:59.794Z,57.90
2023-03-04T19:55:26.755Z,57.90
2023-03-04T19:57:53.710Z,57.90
2023-03-04T20:00:23.376Z,57.80
2023-03-04T20:02:50.942Z,57.80
2023-03-04T20:05:18.075Z,57.90
2023-03-04T20:07:45.033Z,57.80
2023-03-04T20:10:12.599Z,57.90
2023-03-04T20:12:39.574Z,57.90
2023-03-04T20:15:08.300Z,57.90
2023-03-04T20:17:35.520Z,57.90
2023-03-04T20:20:02.673Z,58.00
2023-03-04T20:22:30.364Z,58.00
2023-03-04T20:24:57.374Z,58.00
2023-03-04T20:27:24.484Z,58.10
2023-03-04T20:29:51.419Z,58.00
2023-03-04T20:32:18.411Z,58.70
2023-03-04T20:34:45.375Z,58.20
2023-03-04T20:37:12.308Z,58.40
2023-03-04T20:39:39.169Z,58.50
2023-03-04T20:42:06.697Z,58.60
2023-03-04T20:44:35.546Z,58.70
2023-03-04T20:47:03.247Z,58.90
2023-03-04T20:49:30.415Z,59.00
2023-03-04T20:52:08.325Z,59.00
2023-03-04T20:54:37.442Z,59.10
2023-03-04T20:57:07.912Z,59.20
2023-03-04T20:59:35.997Z,59.30
2023-03-04T21:02:02.914Z,59.40
2023-03-04T21:04:32.515Z,59.50
2023-03-04T21:07:01.691Z,59.60
2023-03-04T21:09:28.870Z,59.60
2023-03-04T21:11:55.790Z,59.90
2023-03-04T21:14:29.187Z,60.10
2023-03-04T21:17:02.644Z,60.20
2023-03-04T21:19:36.170Z,60.30
2023-03-04T21:22:03.946Z,60.40
2023-03-04T21:24:34.415Z,60.60
2023-03-04T21:27:02.439Z,60.60
2023-03-04T21:29:29.469Z,60.70
2023-03-04T21:32:09.774Z,60.80
2023-03-04T21:34:48.450Z,60.90
2023-03-04T21:37:15.377Z,61.10
2023-03-04T21:39:42.321Z,61.30
2023-03-04T21:42:09.234Z,61.40
2023-03-04T21:44:48.646Z,61.30
2023-03-04T21:47:16.044Z,61.40
2023-03-04T21:49:43.062Z,61.60
2023-03-04T21:52:10.005Z,61.90
2023-03-04T21:54:37.232Z,62.30
2023-03-04T21:57:04.297Z,62.20
2023-03-04T21:59:31.269Z,62.10
2023-03-04T22:01:58.285Z,62.10
2023-03-04T22:04:25.182Z,62.30
2023-03-04T22:06:52.112Z,62.30
2023-03-04T22:09:19.203Z,62.40
2023-03-04T22:11:46.134Z,62.60
2023-03-04T22:14:13.586Z,62.70
2023-03-04T22:16:54.044Z,62.70
2023-03-04T22:19:23.717Z,63.10
2023-03-04T22:21:51.614Z,63.10
2023-03-04T22:24:19.371Z,63.10
2023-03-04T22:26:46.352Z,63.10
2023-03-04T22:29:13.283Z,63.80
2023-03-04T22:31:40.264Z,62.80
2023-03-04T22:34:09.916Z,62.80
2023-03-04T22:36:39.730Z,62.60
2023-03-04T22:39:09.227Z,62.50
2023-03-04T22:41:36.880Z,62.60
2023-03-04T22:44:06.274Z,62.60
2023-03-04T22:46:35.968Z,62.60
2023-03-04T22:49:06.334Z,62.80
2023-03-04T22:51:33.260Z,62.80
2023-03-04T22:54:00.253Z,63.00
2023-03-04T22:56:27.217Z,63.30
2023-03-04T22:58:54.148Z,63.40
2023-03-04T23:01:21.412Z,63.60
2023-03-04T23:03:49.665Z,63.80
2023-03-04T23:06:19.645Z,64.00
2023-03-04T23:08:48.704Z,64.00
2023-03-04T23:11:22.132Z,63.90
2023-03-04T23:13:50.216Z,63.90
2023-03-04T23:16:18.372Z,64.00
2023-03-04T23:18:47.334Z,64.20
2023-03-04T23:21:20.309Z,64.50
2023-03-04T23:23:47.369Z,64.70
2023-03-04T23:26:23.040Z,64.80
2023-03-04T23:28:50.888Z,64.80
2023-03-04T23:31:19.088Z,64.80
2023-03-04T23:33:47.897Z,64.80
2023-03-04T23:36:17.211Z,64.90
2023-03-04T23:38:46.124Z,64.90
2023-03-04T23:41:18.432Z,64.80
2023-03-04T23:43:46.513Z,64.80
2023-03-04T23:46:14.181Z,64.80
2023-03-04T23:48:46.407Z,64.90
2023-03-04T23:51:17.410Z,65.00
2023-03-04T23:53:45.672Z,65.20
2023-03-04T23:56:21.208Z,66.30
2023-03-04T23:58:49.079Z,65.60
